createdAt,value
2023-02-13T00:02:27.871Z,11.61
2023-02-13T00:05:03.946Z,11.56
2023-02-13T00:07:37.995Z,11.59
2023-02-13T00:10:07.661Z,11.49
2023-02-13T00:12:36.685Z,11.57
2023-02-13T00:15:14.328Z,11.57
2023-02-13T00:17:42.452Z,11.58
2023-02-13T00:20:11.591Z,11.58
2023-02-13T00:22:44.704Z,11.49
2023-02-13T00:25:14.690Z,11.54
2023-02-13T00:27:42.598Z,11.45
2023-02-13T00:30:15.525Z,11.33
2023-02-13T00:32:44.828Z,11.53
2023-02-13T00:35:13.166Z,11.51
2023-02-13T00:37:41.104Z,11.48
2023-02-13T00:40:10.217Z,11.46
2023-02-13T00:42:43.168Z,11.47
2023-02-13T00:45:13.995Z,11.44
2023-02-13T00:47:42.213Z,11.44
2023-02-13T00:50:11.831Z,11.41
2023-02-13T00:52:39.991Z,11.37
2023-02-13T00:55:09.495Z,11.38
2023-02-13T00:57:38.036Z,11.37
2023-02-13T01:00:14.510Z,11.24
2023-02-13T01:02:59.886Z,11.34
2023-02-13T01:05:33.522Z,11.35
2023-02-13T01:08:03.926Z,11.35
2023-02-13T01:10:31.977Z,11.32
2023-02-13T01:13:00.036Z,11.31
2023-02-13T01:15:28.475Z,11.21
2023-02-13T01:18:00.929Z,11.25
2023-02-13T01:20:29.522Z,11.23
2023-02-13T01:23:00.933Z,11.22
2023-02-13T01:25:29.126Z,11.14
2023-02-13T01:27:58.530Z,11.19
2023-02-13T01:30:35.107Z,11.14
2023-02-13T01:33:04.696Z,11.11
2023-02-13T01:35:34.416Z,11.17
2023-02-13T01:38:03.714Z,11.12
2023-02-13T01:40:35.428Z,11.15
2023-02-13T01:43:03.419Z,11.14
2023-02-13T01:45:38.109Z,11.10
2023-02-13T01:48:08.716Z,11.13
2023-02-13T01:50:40.942Z,11.12
2023-02-13T01:53:10.485Z,10.88
2023-02-13T01:55:40.904Z,11.10
2023-02-13T01:58:26.373Z,11.09
2023-02-13T02:00:56.427Z,11.07
2023-02-13T02:03:29.258Z,11.10
2023-02-13T02:06:01.541Z,11.11
2023-02-13T02:08:29.897Z,11.09
2023-02-13T02:10:58.193Z,11.08
2023-02-13T02:13:27.704Z,11.06
2023-02-13T02:15:55.751Z,11.06
2023-02-13T02:18:25.915Z,11.05
2023-02-13T02:21:26.852Z,10.99
2023-02-13T02:24:08.520Z,11.00
2023-02-13T02:27:18.050Z,11.02
2023-02-13T02:30:30.899Z,11.01
2023-02-13T02:33:12.996Z,10.96
2023-02-13T02:35:51.530Z,10.95
2023-02-13T02:38:43.214Z,10.98
2023-02-13T02:41:36.720Z,10.97
2023-02-13T02:44:12.848Z,11.00
2023-02-13T02:47:01.989Z,10.94
2023-02-13T02:49:52.078Z,10.94
2023-02-13T02:52:20.476Z,10.99
2023-02-13T02:55:08.541Z,11.00
2023-02-13T02:58:03.840Z,11.03
2023-02-13T03:00:50.953Z,11.05
2023-02-13T03:03:38.717Z,10.84
2023-02-13T03:06:17.805Z,11.00
2023-02-13T03:09:05.484Z,11.04
2023-02-13T03:11:55.106Z,11.04
2023-02-13T03:14:23.173Z,11.08
2023-02-13T03:17:23.004Z,11.03
2023-02-13T03:20:16.675Z,11.08
2023-02-13T03:22:54.982Z,11.09
2023-02-13T03:25:42.932Z,11.07
2023-02-13T03:28:32.161Z,11.05
2023-02-13T03:31:02.776Z,11.01
2023-02-13T03:33:59.062Z,11.03
2023-02-13T03:36:54.486Z,11.00
2023-02-13T03:39:30.769Z,10.98
2023-02-13T03:41:59.550Z,10.95
2023-02-13T03:44:30.195Z,10.97
2023-02-13T03:46:59.679Z,10.94
2023-02-13T03:49:47.261Z,10.92
2023-02-13T03:52:18.080Z,11.03
2023-02-13T03:55:09.163Z,11.04
2023-02-13T03:57:58.598Z,11.03
2023-02-13T04:00:27.371Z,11.02
2023-02-13T04:02:58.724Z,11.02
2023-02-13T04:05:28.200Z,10.94
2023-02-13T04:07:56.214Z,10.98
2023-02-13T04:10:27.792Z,10.93
2023-02-13T04:13:03.410Z,11.00
2023-02-13T04:15:33.853Z,10.98
2023-02-13T04:18:10.336Z,11.07
2023-02-13T04:20:39.077Z,10.97
2023-02-13T04:23:07.787Z,11.07
2023-02-13T04:25:37.670Z,11.05
2023-02-13T04:28:05.825Z,11.11
2023-02-13T04:30:35.299Z,11.11
2023-02-13T04:33:03.454Z,11.15
2023-02-13T04:35:31.442Z,10.99
2023-02-13T04:37:59.520Z,11.13
2023-02-13T04:40:29.913Z,11.03
2023-02-13T04:43:00.764Z,11.04
2023-02-13T04:45:37.136Z,11.12
2023-02-13T04:48:05.522Z,11.12
2023-02-13T04:50:35.639Z,11.14
2023-02-13T04:53:03.663Z,11.13
2023-02-13T04:55:34.343Z,11.14
2023-02-13T04:58:04.717Z,11.11
2023-02-13T05:00:34.859Z,11.14
2023-02-13T05:03:05.571Z,11.11
2023-02-13T05:05:33.856Z,11.10
2023-02-13T05:08:10.593Z,11.10
2023-02-13T05:10:41.353Z,11.11
2023-02-13T05:13:12.264Z,11.08
2023-02-13T05:15:40.291Z,11.09
2023-02-13T05:18:08.246Z,11.08
2023-02-13T05:20:36.746Z,11.08
2023-02-13T05:23:24.126Z,11.03
2023-02-13T05:25:54.780Z,11.11
2023-02-13T05:28:42.686Z,11.06
2023-02-13T05:31:10.781Z,11.11
2023-02-13T05:33:40.845Z,11.10
2023-02-13T05:36:11.326Z,11.09
2023-02-13T05:38:41.349Z,11.08
2023-02-13T05:41:14.048Z,11.06
2023-02-13T05:43:46.189Z,11.11
2023-02-13T05:46:14.189Z,11.09
2023-02-13T05:48:49.301Z,11.11
2023-02-13T05:51:17.372Z,11.11
2023-02-13T05:53:45.353Z,11.10
2023-02-13T05:56:13.300Z,11.04
2023-02-13T05:58:41.215Z,10.99
2023-02-13T06:01:10.737Z,11.11
2023-02-13T06:03:40.446Z,11.12
2023-02-13T06:06:09.091Z,11.12
2023-02-13T06:08:39.515Z,11.19
2023-02-13T06:11:07.518Z,11.20
2023-02-13T06:13:37.824Z,11.19
2023-02-13T06:16:13.961Z,11.18
2023-02-13T06:18:45.819Z,11.18
2023-02-13T06:21:17.214Z,11.20
2023-02-13T06:23:45.172Z,11.18
2023-02-13T06:26:16.716Z,11.16
2023-02-13T06:28:44.734Z,11.09
2023-02-13T06:31:13.185Z,11.13
2023-02-13T06:33:43.637Z,11.13
2023-02-13T06:36:23.419Z,11.11
2023-02-13T06:38:51.498Z,11.01
2023-02-13T06:41:21.659Z,11.14
2023-02-13T06:43:49.689Z,11.11
2023-02-13T06:46:20.072Z,11.13
2023-02-13T06:48:51.063Z,11.15
2023-02-13T06:51:20.472Z,11.12
2023-02-13T06:53:49.460Z,11.13
2023-02-13T06:56:18.474Z,11.12
2023-02-13T06:58:47.639Z,11.09
2023-02-13T07:01:16.049Z,11.09
2023-02-13T07:03:44.110Z,11.08
2023-02-13T07:06:17.512Z,11.09
2023-02-13T07:08:55.968Z,11.01
2023-02-13T07:11:24.731Z,11.05
2023-02-13T07:14:07.291Z,11.03
2023-02-13T07:16:35.336Z,11.01
2023-02-13T07:19:05.203Z,11.00
2023-02-13T07:21:33.160Z,10.99
2023-02-13T07:24:10.397Z,10.98
2023-02-13T07:26:38.338Z,10.94
2023-02-13T07:29:11.483Z,10.93
2023-02-13T07:31:44.848Z,10.88
2023-02-13T07:34:13.127Z,10.87
2023-02-13T07:36:43.379Z,10.90
2023-02-13T07:39:12.819Z,10.90
2023-02-13T07:41:40.823Z,10.91
2023-02-13T07:44:09.989Z,10.85
2023-02-13T07:46:38.091Z,10.86
2023-02-13T07:49:09.362Z,10.87
2023-02-13T07:51:37.988Z,10.85
2023-02-13T07:54:08.153Z,10.87
2023-02-13T07:56:39.804Z,10.87
2023-02-13T07:59:08.148Z,10.82
2023-02-13T08:01:36.256Z,10.84
2023-02-13T08:04:04.382Z,10.86
2023-02-13T08:06:32.383Z,10.83
2023-02-13T08:09:17.699Z,10.86
2023-02-13T08:11:59.440Z,10.87
2023-02-13T08:14:30.705Z,10.85
2023-02-13T08:16:59.552Z,10.92
2023-02-13T08:19:27.513Z,10.86
2023-02-13T08:21:55.960Z,10.87
2023-02-13T08:24:25.207Z,10.92
2023-02-13T08:26:54.804Z,10.94
2023-02-13T08:29:22.776Z,11.04
2023-02-13T08:31:50.871Z,10.95
2023-02-13T08:34:18.912Z,11.07
2023-02-13T08:36:47.099Z,11.12
2023-02-13T08:39:15.100Z,11.16
2023-02-13T08:41:59.924Z,11.15
2023-02-13T08:44:29.788Z,11.18
2023-02-13T08:46:57.921Z,11.23
2023-02-13T08:49:25.902Z,11.28
2023-02-13T08:51:53.984Z,11.30
2023-02-13T08:54:23.550Z,11.33
2023-02-13T08:56:51.675Z,11.40
2023-02-13T08:59:21.114Z,11.39
2023-02-13T09:01:50.627Z,11.45
2023-02-13T09:04:19.163Z,11.52
2023-02-13T09:06:48.095Z,11.54
2023-02-13T09:09:19.457Z,11.60
2023-02-13T09:11:51.564Z,11.59
2023-02-13T09:14:27.312Z,11.64
2023-02-13T09:16:58.138Z,11.70
2023-02-13T09:19:31.998Z,11.81
2023-02-13T09:22:14.009Z,11.79
2023-02-13T09:24:42.234Z,11.90
2023-02-13T09:27:10.418Z,12.01
2023-02-13T09:29:40.779Z,12.07
2023-02-13T09:32:12.708Z,12.11
2023-02-13T09:34:49.048Z,12.23
2023-02-13T09:37:17.108Z,12.19
2023-02-13T09:39:45.226Z,12.35
2023-02-13T09:42:18.912Z,12.34
2023-02-13T09:44:50.762Z,12.49
2023-02-13T09:47:24.965Z,12.55
2023-02-13T09:49:53.955Z,12.55
2023-02-13T09:52:21.926Z,12.68
2023-02-13T09:54:49.861Z,12.75
2023-02-13T09:57:31.654Z,12.86
2023-02-13T10:00:02.014Z,12.94
2023-02-13T10:02:54.850Z,13.04
2023-02-13T10:05:30.892Z,13.11
2023-02-13T10:08:01.574Z,13.18
2023-02-13T10:10:33.491Z,13.16
2023-02-13T10:13:17.680Z,13.22
2023-02-13T10:15:49.588Z,13.38
2023-02-13T10:18:20.646Z,13.50
2023-02-13T10:20:50.663Z,13.65
2023-02-13T10:23:22.347Z,13.58
2023-02-13T10:25:52.192Z,13.83
2023-02-13T10:28:26.051Z,13.83
2023-02-13T10:30:55.804Z,13.99
2023-02-13T10:33:29.987Z,13.97
2023-02-13T10:36:01.841Z,14.20
2023-02-13T10:38:31.673Z,14.24
2023-02-13T10:41:21.860Z,14.29
2023-02-13T10:43:58.431Z,14.39
2023-02-13T10:46:28.416Z,14.53
2023-02-13T10:49:04.119Z,14.52
2023-02-13T10:51:35.970Z,14.64
2023-02-13T10:54:35.734Z,14.71
2023-02-13T10:57:08.351Z,14.69
2023-02-13T10:59:51.325Z,14.72
2023-02-13T11:02:24.025Z,14.72
2023-02-13T11:04:57.508Z,14.73
2023-02-13T11:07:26.251Z,14.67
2023-02-13T11:09:56.230Z,14.62
2023-02-13T11:12:25.335Z,14.60
2023-02-13T11:14:56.850Z,14.60
2023-02-13T11:17:30.302Z,14.60
2023-02-13T11:20:00.797Z,14.59
2023-02-13T11:22:32.116Z,14.53
2023-02-13T11:25:01.292Z,14.54
2023-02-13T11:27:31.043Z,14.54
2023-02-13T11:29:59.982Z,14.54
2023-02-13T11:32:28.254Z,14.54
2023-02-13T11:34:56.405Z,14.57
2023-02-13T11:37:27.875Z,14.56
2023-02-13T11:39:56.671Z,14.61
2023-02-13T11:42:29.978Z,14.62
2023-02-13T11:45:00.499Z,14.64
2023-02-13T11:47:39.297Z,14.64
2023-02-13T11:50:08.918Z,14.62
2023-02-13T11:52:38.277Z,14.67
2023-02-13T11:55:07.658Z,14.66
2023-02-13T11:57:36.289Z,14.72
2023-02-13T12:00:30.299Z,14.78
2023-02-13T12:02:58.460Z,14.87
2023-02-13T12:05:27.327Z,14.95
2023-02-13T12:07:58.550Z,14.96
2023-02-13T12:10:27.224Z,15.01
2023-02-13T12:12:56.246Z,15.05
2023-02-13T12:15:25.831Z,15.06
2023-02-13T12:18:05.894Z,15.00
2023-02-13T12:20:38.327Z,15.00
2023-02-13T12:23:10.966Z,15.06
2023-02-13T12:25:50.346Z,15.13
2023-02-13T12:28:18.963Z,15.12
2023-02-13T12:31:27.220Z,15.13
2023-02-13T12:34:40.288Z,15.15
2023-02-13T12:37:16.565Z,15.17
2023-02-13T12:39:51.130Z,15.16
2023-02-13T12:42:30.818Z,15.23
2023-02-13T12:45:06.615Z,15.23
2023-02-13T12:47:37.004Z,15.26
2023-02-13T12:50:29.125Z,15.27
2023-02-13T12:53:18.864Z,15.29
2023-02-13T12:56:11.712Z,15.34
2023-02-13T12:59:02.442Z,15.38
2023-02-13T13:01:54.889Z,15.38
2023-02-13T13:04:27.323Z,15.42
2023-02-13T13:07:10.566Z,15.47
2023-02-13T13:09:52.568Z,15.48
2023-02-13T13:12:53.790Z,15.51
2023-02-13T13:15:26.788Z,15.61
2023-02-13T13:18:16.382Z,15.65
2023-02-13T13:20:59.665Z,15.71
2023-02-13T13:23:31.319Z,15.74
2023-02-13T13:26:05.430Z,15.77
2023-02-13T13:28:43.572Z,15.79
2023-02-13T13:31:14.026Z,15.77
2023-02-13T13:33:43.732Z,15.80
2023-02-13T13:36:15.910Z,15.85
2023-02-13T13:38:52.578Z,15.88
2023-02-13T13:41:24.374Z,15.89
2023-02-13T13:44:01.552Z,15.92
2023-02-13T13:46:35.359Z,15.91
2023-02-13T13:49:11.371Z,15.82
2023-02-13T13:51:39.630Z,15.92
2023-02-13T13:54:35.424Z,15.91
2023-02-13T13:57:08.838Z,15.88
2023-02-13T14:00:14.541Z,15.93
2023-02-13T14:02:46.560Z,15.81
2023-02-13T14:05:31.154Z,15.94
2023-02-13T14:08:00.100Z,15.95
2023-02-13T14:11:02.599Z,15.95
2023-02-13T14:13:34.426Z,15.97
2023-02-13T14:16:03.556Z,15.97
2023-02-13T14:18:33.179Z,15.98
2023-02-13T14:21:01.860Z,15.88
2023-02-13T14:23:39.242Z,16.05
2023-02-13T14:26:14.637Z,16.07
2023-02-13T14:28:42.843Z,15.97
2023-02-13T14:31:16.923Z,16.04
2023-02-13T14:33:46.586Z,15.96
2023-02-13T14:36:21.389Z,15.93
2023-02-13T14:38:57.012Z,15.89
2023-02-13T14:41:43.225Z,15.97
2023-02-13T14:44:17.076Z,15.95
2023-02-13T14:46:49.057Z,15.93
2023-02-13T14:49:19.004Z,15.97
2023-02-13T14:51:48.079Z,15.98
2023-02-13T14:54:29.952Z,15.97
2023-02-13T14:57:05.332Z,15.97
2023-02-13T14:59:37.687Z,15.97
2023-02-13T15:02:14.364Z,15.92
2023-02-13T15:04:44.761Z,15.89
2023-02-13T15:07:17.171Z,15.84
2023-02-13T15:09:48.229Z,15.87
2023-02-13T15:12:26.146Z,15.84
2023-02-13T15:14:54.292Z,15.86
2023-02-13T15:17:24.140Z,15.78
2023-02-13T15:19:54.615Z,15.76
2023-02-13T15:22:31.066Z,15.86
2023-02-13T15:25:01.359Z,15.85
2023-02-13T15:27:30.831Z,15.88
2023-02-13T15:30:01.123Z,15.86
2023-02-13T15:32:34.280Z,15.75
2023-02-13T15:35:03.682Z,15.73
2023-02-13T15:37:31.839Z,15.84
2023-02-13T15:40:18.042Z,15.65
2023-02-13T15:42:46.589Z,15.77
2023-02-13T15:45:21.021Z,15.69
2023-02-13T15:47:51.531Z,15.66
2023-02-13T15:50:25.362Z,15.65
2023-02-13T15:52:55.805Z,15.63
2023-02-13T15:55:24.878Z,15.56
2023-02-13T15:57:53.246Z,15.51
2023-02-13T16:00:25.140Z,15.38
2023-02-13T16:02:54.183Z,15.43
2023-02-13T16:05:38.602Z,15.36
2023-02-13T16:08:29.100Z,15.32
2023-02-13T16:11:31.106Z,15.54
2023-02-13T16:14:17.638Z,15.90
2023-02-13T16:16:51.787Z,16.06
2023-02-13T16:19:25.225Z,16.19
2023-02-13T16:21:54.774Z,16.33
2023-02-13T16:24:23.155Z,16.30
2023-02-13T16:26:51.436Z,16.25
2023-02-13T16:29:20.648Z,16.24
2023-02-13T16:31:49.777Z,16.26
2023-02-13T16:34:25.070Z,16.30
2023-02-13T16:36:54.632Z,16.20
2023-02-13T16:39:24.475Z,16.29
2023-02-13T16:41:52.628Z,16.05
2023-02-13T16:44:27.333Z,15.88
2023-02-13T16:46:57.869Z,15.77
2023-02-13T16:49:27.421Z,15.85
2023-02-13T16:51:59.070Z,15.83
2023-02-13T16:54:52.351Z,15.85
2023-02-13T16:57:23.045Z,15.67
2023-02-13T17:00:09.921Z,15.39
2023-02-13T17:02:38.476Z,15.15
2023-02-13T17:05:22.385Z,14.92
2023-02-13T17:07:53.042Z,14.67
2023-02-13T17:10:25.075Z,14.29
2023-02-13T17:12:53.152Z,14.23
2023-02-13T17:15:23.984Z,14.07
2023-02-13T17:17:52.114Z,13.93
2023-02-13T17:20:23.217Z,13.81
2023-02-13T17:22:53.369Z,13.69
2023-02-13T17:25:30.334Z,13.55
2023-02-13T17:27:59.658Z,13.47
2023-02-13T17:30:29.518Z,13.34
2023-02-13T17:33:00.270Z,13.31
2023-02-13T17:35:29.447Z,13.21
2023-02-13T17:38:01.187Z,13.17
2023-02-13T17:40:31.831Z,13.06
2023-02-13T17:43:00.122Z,13.04
2023-02-13T17:45:29.094Z,12.89
2023-02-13T17:47:58.344Z,12.91
2023-02-13T17:50:26.383Z,12.86
2023-02-13T17:52:58.764Z,12.80
2023-02-13T17:55:28.702Z,12.76
2023-02-13T17:57:57.739Z,12.65
2023-02-13T18:00:27.959Z,12.65
2023-02-13T18:02:56.524Z,12.61
2023-02-13T18:05:24.525Z,12.57
2023-02-13T18:07:54.960Z,12.54
2023-02-13T18:10:25.704Z,12.44
2023-02-13T18:12:54.364Z,12.43
2023-02-13T18:15:30.718Z,12.35
2023-02-13T18:18:01.485Z,12.31
2023-02-13T18:20:29.930Z,12.34
2023-02-13T18:22:57.993Z,12.22
2023-02-13T18:25:44.007Z,12.26
2023-02-13T18:28:12.228Z,12.17
2023-02-13T18:30:42.734Z,12.16
2023-02-13T18:33:10.789Z,12.14
2023-02-13T18:35:38.722Z,12.10
2023-02-13T18:38:09.440Z,12.05
2023-02-13T18:40:37.408Z,12.02
2023-02-13T18:43:06.744Z,11.98
2023-02-13T18:45:34.902Z,11.96
2023-02-13T18:48:06.486Z,11.87
2023-02-13T18:50:40.272Z,11.90
2023-02-13T18:53:08.349Z,11.83
2023-02-13T18:55:36.279Z,11.86
2023-02-13T18:58:04.217Z,11.85
2023-02-13T19:00:33.587Z,11.82
2023-02-13T19:03:01.835Z,11.73
2023-02-13T19:05:29.862Z,11.72
2023-02-13T19:08:05.719Z,11.74
2023-02-13T19:10:36.165Z,11.74
2023-02-13T19:13:04.127Z,11.72
2023-02-13T19:15:33.509Z,11.61
2023-02-13T19:18:01.688Z,11.64
2023-02-13T19:20:29.769Z,11.54
2023-02-13T19:22:57.807Z,11.66
2023-02-13T19:25:25.912Z,11.63
2023-02-13T19:27:54.293Z,11.62
2023-02-13T19:30:22.541Z,11.60
2023-02-13T19:32:54.360Z,11.55
2023-02-13T19:35:22.396Z,11.54
2023-02-13T19:37:50.356Z,11.54
2023-02-13T19:40:18.563Z,11.51
2023-02-13T19:42:46.499Z,11.48
2023-02-13T19:45:14.658Z,11.47
2023-02-13T19:47:45.708Z,11.45
2023-02-13T19:50:17.743Z,11.41
2023-02-13T19:52:46.793Z,11.44
2023-02-13T19:55:14.733Z,11.42
2023-02-13T19:57:42.794Z,11.38
2023-02-13T20:00:11.891Z,11.33
2023-02-13T20:02:43.609Z,11.33
2023-02-13T20:05:11.826Z,11.34
2023-02-13T20:07:41.488Z,11.32
2023-02-13T20:10:10.367Z,11.16
2023-02-13T20:12:48.644Z,11.31
2023-02-13T20:15:19.338Z,11.30
2023-02-13T20:17:47.403Z,11.26
2023-02-13T20:20:15.483Z,11.25
2023-02-13T20:22:47.511Z,11.22
2023-02-13T20:25:18.609Z,11.23
2023-02-13T20:27:46.746Z,11.20
2023-02-13T20:30:15.870Z,11.21
2023-02-13T20:32:46.614Z,11.21
2023-02-13T20:35:14.630Z,11.20
2023-02-13T20:37:43.953Z,11.18
2023-02-13T20:40:23.038Z,11.18
2023-02-13T20:42:51.025Z,11.15
2023-02-13T20:45:19.204Z,11.16
2023-02-13T20:47:47.612Z,11.14
2023-02-13T20:50:18.867Z,11.15
2023-02-13T20:52:48.129Z,11.12
2023-02-13T20:55:16.272Z,11.09
2023-02-13T20:57:44.230Z,11.15
2023-02-13T21:00:41.472Z,11.19
2023-02-13T21:03:09.648Z,11.12
2023-02-13T21:05:37.709Z,11.11
2023-02-13T21:08:07.346Z,11.13
2023-02-13T21:10:35.493Z,11.12
2023-02-13T21:13:03.916Z,11.14
2023-02-13T21:15:32.957Z,11.12
2023-02-13T21:18:01.788Z,11.11
2023-02-13T21:20:29.806Z,11.07
2023-02-13T21:22:59.660Z,11.07
2023-02-13T21:25:31.936Z,11.05
2023-02-13T21:28:00.037Z,11.04
2023-02-13T21:30:33.252Z,11.01
2023-02-13T21:33:05.711Z,10.99
2023-02-13T21:35:33.761Z,10.97
2023-02-13T21:38:02.908Z,10.91
2023-02-13T21:40:32.363Z,10.86
2023-02-13T21:43:05.413Z,10.87
2023-02-13T21:45:33.700Z,10.84
2023-02-13T21:48:01.651Z,10.84
2023-02-13T21:50:29.682Z,10.84
2023-02-13T21:52:57.636Z,10.85
2023-02-13T21:55:28.151Z,10.84
2023-02-13T21:57:57.807Z,10.84
2023-02-13T22:00:25.939Z,10.87
2023-02-13T22:02:54.124Z,10.90
2023-02-13T22:05:31.008Z,10.87
2023-02-13T22:08:11.151Z,10.88
2023-02-13T22:10:39.321Z,10.84
2023-02-13T22:13:08.663Z,10.84
2023-02-13T22:15:39.396Z,10.85
2023-02-13T22:18:07.504Z,10.88
2023-02-13T22:20:36.391Z,10.94
2023-02-13T22:23:04.406Z,10.96
2023-02-13T22:25:32.548Z,11.07
2023-02-13T22:28:03.181Z,11.10
2023-02-13T22:30:32.686Z,11.16
2023-02-13T22:33:01.920Z,11.18
2023-02-13T22:35:30.847Z,11.19
2023-02-13T22:38:04.448Z,11.25
2023-02-13T22:40:35.776Z,11.25
2023-02-13T22:43:03.935Z,11.32
2023-02-13T22:45:36.669Z,11.38
2023-02-13T22:48:05.088Z,11.46
2023-02-13T22:50:33.833Z,11.48
2023-02-13T22:53:02.385Z,11.47
2023-02-13T22:55:30.973Z,11.40
2023-02-13T22:57:58.984Z,11.43
2023-02-13T23:00:27.211Z,11.42
2023-02-13T23:02:56.661Z,11.41
2023-02-13T23:05:24.686Z,11.38
2023-02-13T23:07:52.808Z,11.39
2023-02-13T23:10:20.865Z,11.36
2023-02-13T23:12:49.944Z,11.33
2023-02-13T23:15:17.929Z,11.32
2023-02-13T23:18:03.440Z,11.26
2023-02-13T23:20:33.255Z,11.24
2023-02-13T23:23:03.116Z,11.24
2023-02-13T23:25:32.688Z,11.23
2023-02-13T23:28:00.766Z,11.22
2023-02-13T23:30:30.165Z,11.18
2023-02-13T23:32:58.675Z,11.19
2023-02-13T23:35:27.904Z,11.17
2023-02-13T23:37:57.465Z,11.16
2023-02-13T23:40:32.918Z,11.11
2023-02-13T23:43:01.038Z,11.06
2023-02-13T23:45:28.998Z,11.08
2023-02-13T23:47:57.017Z,11.07
2023-02-13T23:50:24.985Z,10.97
2023-02-13T23:52:55.360Z,11.04
2023-02-13T23:55:24.705Z,11.05
2023-02-13T23:57:53.036Z,11.05
